createdAt,value
2017-11-01T00:02:28.047Z,7.80
2017-11-01T00:04:56.133Z,7.50
2017-11-01T00:07:32.181Z,7.57
2017-11-01T00:10:00.273Z,7.50
2017-11-01T00:12:42.073Z,8.00
2017-11-01T00:15:10.110Z,8.40
2017-11-01T00:17:44.459Z,7.60
2017-11-01T00:20:16.116Z,7.93
2017-11-01T00:22:44.178Z,8.30
2017-11-01T00:25:13.321Z,8.20
2017-11-01T00:27:41.468Z,9.57
2017-11-01T00:30:11.840Z,7.60
2017-11-01T00:32:40.006Z,7.97
2017-11-01T00:35:08.115Z,8.37
2017-11-01T00:37:47.070Z,8.27
2017-11-01T00:40:21.597Z,7.97
2017-11-01T00:42:56.117Z,7.40
2017-11-01T00:45:37.837Z,6.73
2017-11-01T00:48:13.769Z,7.00
2017-11-01T00:50:46.345Z,8.47
2017-11-01T00:53:16.466Z,6.70
2017-11-01T00:55:55.303Z,7.23
2017-11-01T00:58:25.369Z,7.33
2017-11-01T01:00:57.612Z,8.37
2017-11-01T01:03:27.709Z,8.47
2017-11-01T01:05:59.134Z,7.50
2017-11-01T01:08:40.990Z,8.63
2017-11-01T01:11:19.891Z,8.70
2017-11-01T01:16:36.397Z,7.67
2017-11-01T01:19:07.922Z,8.00
2017-11-01T01:21:37.065Z,7.80
2017-11-01T01:24:05.197Z,8.30
2017-11-01T01:26:35.312Z,7.20
2017-11-01T01:29:07.082Z,7.90
2017-11-01T01:34:27.380Z,8.73
2017-11-01T01:39:57.600Z,7.80
2017-11-01T01:42:35.021Z,8.50
2017-11-01T01:45:06.346Z,8.10
2017-11-01T01:47:44.789Z,8.97
2017-11-01T01:50:17.443Z,9.40
2017-11-01T01:52:46.599Z,6.77
2017-11-01T01:55:14.712Z,8.27
2017-11-01T01:57:53.048Z,8.10
2017-11-01T02:00:25.732Z,9.40
2017-11-01T02:02:58.512Z,7.87
2017-11-01T02:05:34.593Z,7.63
2017-11-01T02:08:13.396Z,8.20
2017-11-01T02:10:42.505Z,8.53
2017-11-01T02:13:22.157Z,7.87
2017-11-01T02:18:49.735Z,8.60
2017-11-01T02:21:28.316Z,8.33
2017-11-01T02:23:58.452Z,9.00
2017-11-01T02:26:36.636Z,8.60
2017-11-01T02:29:11.301Z,8.63
2017-11-01T02:31:39.468Z,8.90
2017-11-01T02:34:15.725Z,8.30
2017-11-01T02:36:50.365Z,8.80
2017-11-01T02:39:18.395Z,9.47
2017-11-01T02:44:40.444Z,10.77
2017-11-01T02:47:11.875Z,9.40
2017-11-01T02:49:40.046Z,9.10
2017-11-01T02:52:27.150Z,8.40
2017-11-01T02:54:55.260Z,9.47
2017-11-01T03:00:13.437Z,9.80
2017-11-01T03:02:44.877Z,11.30
2017-11-01T03:05:30.789Z,8.60
2017-11-01T03:07:59.860Z,10.60
2017-11-01T03:10:40.331Z,9.10
2017-11-01T03:13:13.186Z,8.43
2017-11-01T03:15:41.197Z,9.80
2017-11-01T03:18:16.817Z,9.60
2017-11-01T03:20:48.375Z,9.30
2017-11-01T03:23:31.945Z,10.30
2017-11-01T03:28:48.128Z,8.90
2017-11-01T03:31:19.668Z,9.00
2017-11-01T03:33:51.313Z,9.53
2017-11-01T03:36:22.901Z,8.73
2017-11-01T03:38:58.329Z,9.30
2017-11-01T03:41:26.342Z,9.60
2017-11-01T03:44:08.163Z,9.23
2017-11-01T03:46:42.656Z,9.70
2017-11-01T03:49:10.853Z,9.60
2017-11-01T03:51:38.968Z,10.50
2017-11-01T03:54:14.337Z,9.90
2017-11-01T03:56:57.897Z,10.97
2017-11-01T03:59:29.384Z,10.37
2017-11-01T04:01:57.494Z,9.33
2017-11-01T04:04:26.596Z,9.07
2017-11-01T04:06:54.665Z,9.97
2017-11-01T04:09:24.767Z,8.97
2017-11-01T04:12:01.946Z,9.80
2017-11-01T04:14:29.974Z,9.67
2017-11-01T04:17:00.050Z,9.50
2017-11-01T04:19:35.430Z,9.43
2017-11-01T04:22:14.353Z,9.70
2017-11-01T04:35:54.525Z,11.43
2017-11-01T04:38:22.674Z,9.17
2017-11-01T04:40:50.757Z,9.43
2017-11-01T04:43:20.911Z,9.33
2017-11-01T04:46:02.626Z,9.63
2017-11-01T04:48:30.638Z,9.13
2017-11-01T04:51:06.275Z,10.60
2017-11-01T04:53:44.728Z,9.77
2017-11-01T04:56:23.881Z,8.90
2017-11-01T04:58:51.951Z,9.20
2017-11-01T05:01:24.324Z,10.33
2017-11-01T05:03:54.437Z,9.23
2017-11-01T05:06:27.522Z,9.73
2017-11-01T05:08:59.093Z,10.70
2017-11-01T05:11:33.170Z,10.40
2017-11-01T05:14:03.197Z,10.80
2017-11-01T05:16:33.284Z,10.63
2017-11-01T05:19:02.300Z,9.07
2017-11-01T05:21:30.428Z,9.63
2017-11-01T05:24:02.538Z,10.00
2017-11-01T05:26:30.704Z,10.30
2017-11-01T05:28:59.748Z,9.13
2017-11-01T05:31:38.356Z,10.10
2017-11-01T05:34:11.851Z,10.67
2017-11-01T05:36:39.910Z,9.90
2017-11-01T05:39:20.706Z,9.73
2017-11-01T05:41:56.398Z,9.97
2017-11-01T05:44:24.492Z,10.33
2017-11-01T05:46:55.868Z,10.00
2017-11-01T05:49:38.334Z,10.10
2017-11-01T05:52:24.934Z,9.83
2017-11-01T05:54:53.047Z,9.90
2017-11-01T05:57:29.133Z,10.47
2017-11-01T06:00:01.782Z,9.73
2017-11-01T06:02:40.331Z,9.53
2017-11-01T06:05:10.418Z,10.67
2017-11-01T06:10:26.842Z,11.43
2017-11-01T06:12:58.785Z,10.00
2017-11-01T06:15:26.790Z,12.07
2017-11-01T06:18:02.870Z,9.37
2017-11-01T06:20:34.560Z,10.27
2017-11-01T06:23:15.919Z,10.10
2017-11-01T06:28:32.409Z,9.90
2017-11-01T06:31:00.425Z,11.00
2017-11-01T06:33:28.561Z,10.33
2017-11-01T06:36:03.489Z,9.60
2017-11-01T06:38:31.559Z,11.10
2017-11-01T06:41:01.667Z,10.20
2017-11-01T06:43:43.320Z,9.40
2017-11-01T06:46:11.469Z,9.83
2017-11-01T06:48:49.789Z,11.47
2017-11-01T06:51:19.857Z,10.23
2017-11-01T06:53:49.595Z,9.70
2017-11-01T06:56:17.647Z,9.93
2017-11-01T06:59:00.925Z,10.43
2017-11-01T07:01:29.974Z,8.97
2017-11-01T07:09:43.783Z,9.90
2017-11-01T07:12:15.593Z,9.50
2017-11-01T07:14:54.257Z,10.27
2017-11-01T07:17:40.662Z,10.03
2017-11-01T07:20:08.641Z,10.70
2017-11-01T07:22:40.122Z,10.00
2017-11-01T07:25:10.190Z,9.33
2017-11-01T07:27:42.157Z,11.63
2017-11-01T07:30:20.649Z,10.77
2017-11-01T07:32:48.682Z,9.93
2017-11-01T07:35:18.741Z,10.00
2017-11-01T07:40:34.831Z,9.17
2017-11-01T07:43:02.949Z,9.87
2017-11-01T07:45:36.144Z,9.90
2017-11-01T07:48:07.946Z,9.47
2017-11-01T07:53:24.257Z,9.07
2017-11-01T07:55:53.275Z,10.13
2017-11-01T07:58:22.357Z,11.60
2017-11-01T08:00:57.484Z,10.67
2017-11-01T08:03:25.606Z,10.00
2017-11-01T08:06:04.774Z,10.20
2017-11-01T08:08:34.842Z,10.47
2017-11-01T08:11:09.576Z,9.30
2017-11-01T08:13:38.667Z,8.57
2017-11-01T08:16:21.221Z,10.23
2017-11-01T08:18:59.814Z,10.30
2017-11-01T08:21:29.914Z,8.83
2017-11-01T08:24:04.772Z,10.03
2017-11-01T08:26:39.480Z,9.17
2017-11-01T08:29:22.174Z,9.40
2017-11-01T08:31:57.678Z,9.20
2017-11-01T08:34:29.588Z,10.20
2017-11-01T08:37:13.271Z,8.43
2017-11-01T08:39:47.986Z,10.43
2017-11-01T08:42:16.168Z,10.97
2017-11-01T08:44:44.313Z,10.47
2017-11-01T08:47:14.597Z,10.10
2017-11-01T08:49:42.719Z,8.57
2017-11-01T08:52:10.826Z,10.00
2017-11-01T08:57:26.803Z,8.10
2017-11-01T09:00:05.064Z,11.40
2017-11-01T09:02:34.066Z,10.30
2017-11-01T09:05:07.443Z,10.20
2017-11-01T09:07:54.060Z,10.20
2017-11-01T09:10:22.055Z,13.33
2017-11-01T09:12:55.704Z,9.67
2017-11-01T09:15:23.697Z,9.57
2017-11-01T09:17:52.741Z,9.10
2017-11-01T09:20:20.812Z,11.20
2017-11-01T09:22:50.833Z,9.90
2017-11-01T09:25:20.849Z,8.70
2017-11-01T09:27:55.913Z,9.53
2017-11-01T09:30:29.629Z,10.33
2017-11-01T09:32:58.729Z,9.90
2017-11-01T09:35:30.252Z,8.73
2017-11-01T09:40:53.604Z,10.43
2017-11-01T09:43:21.585Z,8.73
2017-11-01T09:45:52.909Z,10.60
2017-11-01T09:48:28.342Z,8.77
2017-11-01T09:50:56.460Z,9.63
2017-11-01T09:53:24.560Z,9.27
2017-11-01T09:58:46.719Z,8.90
2017-11-01T10:01:25.442Z,9.37
2017-11-01T10:04:00.217Z,7.83
2017-11-01T10:06:34.661Z,8.20
2017-11-01T10:09:06.137Z,7.27
2017-11-01T10:11:34.172Z,7.33
2017-11-01T10:14:12.565Z,7.13
2017-11-01T10:16:40.704Z,7.00
2017-11-01T10:19:09.790Z,7.50
2017-11-01T10:21:51.010Z,7.20
2017-11-01T10:24:36.780Z,6.30
2017-11-01T10:27:04.825Z,6.40
2017-11-01T10:29:46.265Z,7.20
2017-11-01T10:32:27.945Z,6.73
2017-11-01T10:34:56.028Z,7.70
2017-11-01T10:37:28.459Z,8.20
2017-11-01T10:40:01.671Z,6.40
2017-11-01T10:42:31.869Z,6.27
2017-11-01T10:45:03.509Z,6.23
2017-11-01T10:47:36.605Z,6.83
2017-11-01T10:50:04.600Z,5.87
2017-11-01T10:52:38.681Z,6.30
2017-11-01T10:55:07.745Z,5.87
2017-11-01T10:57:35.909Z,6.23
2017-11-01T11:00:21.586Z,6.00
2017-11-01T11:03:01.456Z,7.40
2017-11-01T11:05:47.005Z,6.40
2017-11-01T11:08:19.873Z,6.67
2017-11-01T11:10:47.960Z,6.90
2017-11-01T11:13:19.968Z,7.00
2017-11-01T11:15:51.330Z,7.57
2017-11-01T11:18:25.089Z,6.67
2017-11-01T11:20:53.256Z,5.80
2017-11-01T11:23:23.368Z,6.40
2017-11-01T11:26:03.007Z,5.97
2017-11-01T11:28:32.080Z,6.23
2017-11-01T11:31:03.737Z,5.93
2017-11-01T11:33:35.217Z,5.27
2017-11-01T11:36:04.277Z,5.30
2017-11-01T11:38:43.237Z,6.37
2017-11-01T11:41:15.164Z,5.50
2017-11-01T11:43:53.630Z,4.57
2017-11-01T11:46:21.639Z,7.83
2017-11-01T11:48:49.733Z,10.83
2017-11-01T11:51:23.485Z,6.80
2017-11-01T11:53:55.217Z,7.33
2017-11-01T11:56:35.997Z,5.23
2017-11-01T11:59:08.240Z,6.00
2017-11-01T12:01:36.351Z,4.20
2017-11-01T12:04:08.006Z,4.03
2017-11-01T12:09:27.258Z,4.53
2017-11-01T12:12:05.793Z,5.70
2017-11-01T12:14:33.859Z,5.10
2017-11-01T12:17:09.005Z,3.83
2017-11-01T12:19:41.685Z,4.70
2017-11-01T12:22:21.166Z,4.00
2017-11-01T12:24:49.165Z,4.40
2017-11-01T12:27:17.254Z,4.70
2017-11-01T12:29:52.249Z,5.23
2017-11-01T12:32:34.143Z,5.13
2017-11-01T12:35:02.291Z,4.50
2017-11-01T12:37:30.330Z,4.10
2017-11-01T12:39:58.428Z,4.50
2017-11-01T12:42:34.157Z,4.20
2017-11-01T12:45:14.497Z,4.77
2017-11-01T12:47:43.493Z,4.93
2017-11-01T12:50:12.514Z,3.63
2017-11-01T12:52:51.696Z,4.40
2017-11-01T12:55:23.412Z,4.70
2017-11-01T12:57:54.963Z,5.07
2017-11-01T13:00:26.597Z,5.80
2017-11-01T13:02:55.627Z,4.50
2017-11-01T13:05:23.649Z,6.23
2017-11-01T13:07:51.794Z,4.80
2017-11-01T13:10:27.344Z,7.97
2017-11-01T13:13:01.969Z,5.10
2017-11-01T13:15:33.586Z,5.00
2017-11-01T13:18:07.093Z,4.00
2017-11-01T13:20:43.410Z,4.07
2017-11-01T13:23:11.603Z,4.27
2017-11-01T13:25:39.706Z,4.10
2017-11-01T13:28:09.733Z,4.30
2017-11-01T13:30:46.053Z,4.73
2017-11-01T13:33:20.650Z,4.10
2017-11-01T13:35:55.987Z,5.87
2017-11-01T13:38:27.546Z,4.40
2017-11-01T13:41:05.929Z,3.40
2017-11-01T13:43:40.457Z,4.07
2017-11-01T13:46:17.569Z,4.40
2017-11-01T13:48:49.540Z,4.20
2017-11-01T13:51:17.655Z,4.10
2017-11-01T13:53:46.694Z,3.87
2017-11-01T13:56:18.478Z,3.60
2017-11-01T13:58:50.713Z,2.90
2017-11-01T14:01:22.530Z,2.77
2017-11-01T14:03:54.080Z,3.70
2017-11-01T14:06:23.070Z,3.77
2017-11-01T14:08:56.943Z,3.93
2017-11-01T14:11:28.893Z,3.17
2017-11-01T14:14:05.064Z,3.60
2017-11-01T14:16:33.144Z,4.07
2017-11-01T14:19:15.709Z,2.90
2017-11-01T14:21:47.633Z,3.70
2017-11-01T14:24:16.713Z,3.73
2017-11-01T14:26:44.842Z,3.10
2017-11-01T14:29:12.969Z,4.50
2017-11-01T14:31:48.338Z,3.97
2017-11-01T14:34:16.383Z,3.27
2017-11-01T14:36:45.500Z,3.13
2017-11-01T14:39:21.038Z,3.43
2017-11-01T14:41:49.105Z,4.23
2017-11-01T14:44:25.154Z,4.97
2017-11-01T14:46:58.767Z,3.53
2017-11-01T14:49:32.355Z,3.67
2017-11-01T14:52:01.398Z,3.83
2017-11-01T14:54:32.917Z,3.33
2017-11-01T14:57:11.444Z,4.13
2017-11-01T14:59:47.340Z,3.77
2017-11-01T15:02:15.503Z,4.20
2017-11-01T15:04:50.614Z,4.47
2017-11-01T15:07:36.269Z,4.00
2017-11-01T15:10:06.308Z,3.90
2017-11-01T15:12:39.239Z,4.07
2017-11-01T15:15:07.349Z,4.70
2017-11-01T15:17:35.428Z,5.63
2017-11-01T15:20:03.440Z,5.60
2017-11-01T15:22:31.497Z,5.80
2017-11-01T15:24:59.518Z,7.10
2017-11-01T15:27:28.557Z,5.53
2017-11-01T15:29:58.575Z,6.30
2017-11-01T15:32:28.669Z,5.40
2017-11-01T15:34:57.722Z,5.70
2017-11-01T15:37:25.740Z,5.90
2017-11-01T15:39:53.739Z,5.37
2017-11-01T15:42:21.783Z,6.30
2017-11-01T15:44:49.758Z,6.17
2017-11-01T15:47:17.748Z,6.10
2017-11-01T15:49:45.806Z,5.83
2017-11-01T15:52:13.788Z,5.80
2017-11-01T15:54:42.294Z,5.63
2017-11-01T15:57:10.331Z,5.43
2017-11-01T15:59:38.353Z,5.97
2017-11-01T16:02:06.349Z,5.50
2017-11-01T16:04:34.347Z,5.27
2017-11-01T16:07:03.342Z,6.00
2017-11-01T16:09:31.337Z,6.77
2017-11-01T16:12:03.089Z,6.10
2017-11-01T16:14:31.118Z,5.70
2017-11-01T16:16:59.124Z,5.50
2017-11-01T16:19:27.138Z,6.60
2017-11-01T16:21:55.192Z,6.63
2017-11-01T16:24:24.259Z,6.37
2017-11-01T16:26:52.250Z,7.10
2017-11-01T16:29:20.266Z,6.07
2017-11-01T16:31:48.258Z,7.00
2017-11-01T16:34:16.258Z,5.70
2017-11-01T16:36:44.250Z,6.07
2017-11-01T16:39:12.245Z,5.33
2017-11-01T16:41:40.286Z,6.03
2017-11-01T16:44:09.294Z,6.17
2017-11-01T16:46:37.329Z,7.03
2017-11-01T16:49:05.349Z,6.57
2017-11-01T16:51:33.350Z,7.20
2017-11-01T16:54:05.450Z,6.70
2017-11-01T16:56:33.481Z,6.73
2017-11-01T16:59:03.549Z,8.07
2017-11-01T17:01:31.575Z,6.97
2017-11-01T17:04:02.594Z,6.43
2017-11-01T17:06:30.578Z,6.53
2017-11-01T17:08:58.597Z,8.43
2017-11-01T17:11:26.693Z,7.80
2017-11-01T17:13:54.743Z,7.40
2017-11-01T17:16:22.734Z,7.33
2017-11-01T17:18:51.753Z,6.47
2017-11-01T17:21:19.740Z,7.20
2017-11-01T17:23:51.084Z,6.73
2017-11-01T17:26:19.138Z,8.37
2017-11-01T17:28:47.193Z,8.43
2017-11-01T17:31:17.189Z,7.80
2017-11-01T17:33:45.227Z,7.10
2017-11-01T17:36:16.980Z,7.17
2017-11-01T17:38:45.046Z,7.20
2017-11-01T17:41:13.053Z,6.40
2017-11-01T17:43:51.497Z,7.20
2017-11-01T17:46:24.959Z,7.47
2017-11-01T17:48:52.973Z,9.80
2017-11-01T17:51:20.974Z,7.30
2017-11-01T17:53:52.825Z,7.30
2017-11-01T17:56:20.941Z,7.60
2017-11-01T17:58:49.005Z,8.10
2017-11-01T18:01:17.039Z,8.00
2017-11-01T18:03:45.034Z,8.13
2017-11-01T18:06:13.097Z,9.10
2017-11-01T18:08:41.101Z,9.90
2017-11-01T18:11:09.117Z,7.30
2017-11-01T18:13:37.125Z,6.97
2017-11-01T18:16:05.114Z,7.10
2017-11-01T18:18:33.135Z,8.27
2017-11-01T18:21:04.930Z,6.47
2017-11-01T18:23:32.946Z,7.50
2017-11-01T18:26:01.001Z,8.20
2017-11-01T18:28:29.001Z,8.60
2017-11-01T18:30:57.032Z,9.70
2017-11-01T18:33:25.038Z,9.00
2017-11-01T18:35:54.128Z,8.43
2017-11-01T18:38:22.169Z,9.30
2017-11-01T18:40:53.916Z,8.90
2017-11-01T18:43:25.325Z,8.50
2017-11-01T18:45:53.459Z,8.13
2017-11-01T18:48:21.453Z,8.60
2017-11-01T18:50:49.435Z,7.40
2017-11-01T18:53:17.436Z,8.80
2017-11-01T18:55:45.437Z,9.53
2017-11-01T18:58:13.470Z,9.60
2017-11-01T19:00:41.531Z,10.80
2017-11-01T19:03:13.041Z,10.60
2017-11-01T19:05:41.078Z,9.97
2017-11-01T19:08:09.105Z,12.37
2017-11-01T19:10:37.132Z,12.57
2017-11-01T19:13:05.120Z,11.30
2017-11-01T19:15:36.346Z,11.07
2017-11-01T19:18:04.373Z,10.83
2017-11-01T19:20:36.600Z,11.20
2017-11-01T19:23:04.605Z,11.73
2017-11-01T19:25:36.444Z,10.90
2017-11-01T19:28:15.125Z,11.50
2017-11-01T19:30:49.774Z,13.93
2017-11-01T19:33:22.876Z,10.90
2017-11-01T19:35:50.979Z,9.63
2017-11-01T19:38:19.065Z,10.70
2017-11-01T19:40:55.296Z,10.63
2017-11-01T19:43:23.357Z,10.60
2017-11-01T19:46:02.402Z,10.10
2017-11-01T19:48:38.162Z,11.00
2017-11-01T19:53:58.482Z,8.40
2017-11-01T19:56:26.607Z,9.20
2017-11-01T19:58:57.962Z,9.10
2017-11-01T20:01:32.523Z,8.70
2017-11-01T20:04:04.044Z,9.57
2017-11-01T20:06:33.154Z,8.20
2017-11-01T20:09:01.262Z,9.30
2017-11-01T20:11:31.374Z,8.23
2017-11-01T20:14:04.521Z,8.13
2017-11-01T20:16:33.625Z,9.70
2017-11-01T20:19:01.720Z,9.00
2017-11-01T20:21:34.198Z,9.60
2017-11-01T20:24:03.385Z,10.63
2017-11-01T20:26:33.401Z,10.37
2017-11-01T20:29:01.460Z,10.90
2017-11-01T20:31:29.473Z,10.67
2017-11-01T20:33:57.617Z,9.27
2017-11-01T20:36:30.719Z,9.90
2017-11-01T20:39:03.332Z,9.70
2017-11-01T20:41:41.952Z,9.43
2017-11-01T20:44:13.727Z,8.10
2017-11-01T20:46:42.845Z,9.00
2017-11-01T20:49:10.954Z,7.27
2017-11-01T20:51:40.041Z,8.30
2017-11-01T20:54:14.641Z,9.60
2017-11-01T20:56:42.836Z,9.33
2017-11-01T20:59:12.880Z,7.93
2017-11-01T21:01:46.057Z,7.90
2017-11-01T21:04:14.250Z,8.50
2017-11-01T21:06:42.301Z,11.63
2017-11-01T21:09:10.400Z,9.67
2017-11-01T21:11:40.437Z,10.70
2017-11-01T21:14:08.478Z,9.80
2017-11-01T21:16:36.583Z,9.73
2017-11-01T21:19:04.780Z,11.83
2017-11-01T21:21:37.569Z,9.17
2017-11-01T21:24:09.298Z,8.67
2017-11-01T21:26:40.845Z,10.03
2017-11-01T21:29:23.619Z,9.27
2017-11-01T21:31:53.688Z,10.77
2017-11-01T21:34:22.778Z,9.00
2017-11-01T21:36:51.785Z,10.40
2017-11-01T21:39:31.349Z,10.07
2017-11-01T21:42:00.417Z,10.93
2017-11-01T21:44:29.545Z,10.07
2017-11-01T21:46:59.708Z,12.23
2017-11-01T21:49:27.873Z,11.73
2017-11-01T21:52:01.845Z,9.97
2017-11-01T21:54:33.321Z,10.03
2017-11-01T21:57:18.896Z,10.70
2017-11-01T21:59:47.944Z,10.67
2017-11-01T22:02:22.202Z,10.10
2017-11-01T22:05:01.950Z,11.57
2017-11-01T22:10:22.209Z,11.60
2017-11-01T22:12:50.306Z,10.50
2017-11-01T22:15:22.162Z,11.30
2017-11-01T22:17:58.950Z,10.50
2017-11-01T22:20:27.020Z,12.33
2017-11-01T22:22:58.906Z,10.00
2017-11-01T22:25:29.047Z,9.73
2017-11-01T22:27:57.191Z,10.43
2017-11-01T22:30:33.475Z,11.83
2017-11-01T22:33:08.394Z,9.70
2017-11-01T22:35:40.542Z,10.90
2017-11-01T22:38:13.306Z,10.60
2017-11-01T22:40:43.356Z,10.37
2017-11-01T22:43:14.723Z,11.00
2017-11-01T22:45:47.240Z,10.20
2017-11-01T22:48:25.729Z,11.07
2017-11-01T22:50:59.620Z,11.50
2017-11-01T22:53:38.806Z,11.30
2017-11-01T22:56:06.910Z,12.17
2017-11-01T22:58:35.993Z,11.13
2017-11-01T23:01:18.349Z,9.67
2017-11-01T23:03:47.450Z,11.70
2017-11-01T23:06:15.461Z,11.60
2017-11-01T23:08:46.725Z,12.80
2017-11-01T23:11:18.177Z,11.80
2017-11-01T23:13:52.716Z,10.40
2017-11-01T23:16:21.804Z,12.40
2017-11-01T23:18:49.882Z,14.47
2017-11-01T23:21:21.721Z,13.07
2017-11-01T23:23:56.190Z,14.03
2017-11-01T23:26:25.244Z,16.00
2017-11-01T23:28:57.319Z,16.07
2017-11-01T23:31:30.930Z,13.60
2017-11-01T23:34:14.411Z,11.70
2017-11-01T23:36:51.057Z,11.83
2017-11-01T23:39:25.682Z,12.70
2017-11-01T23:41:58.318Z,10.07
2017-11-01T23:44:29.905Z,10.40
2017-11-01T23:47:08.571Z,9.97
2017-11-01T23:49:36.710Z,9.83
2017-11-01T23:52:12.051Z,8.70
2017-11-01T23:54:42.141Z,8.40
2017-11-01T23:57:11.258Z,10.30
2017-11-01T23:59:43.709Z,8.80
